Praia Grande, Brazil
Current Conditions -  °F | °C
As of 10:00 AM on Thursday 29 Jan 2015 (Local Time) from SBSP Reporting Station
Scattered Clouds Scattered Clouds  
Wind Chill: 75°   Ceiling: Unl
Heat Index: 75°   Visibility: 6mi
Dew Point: 63°   Wind: 15mph
Humidity: 65%   Direction: 310°NW
Pressure: 30.06"   Gusts: NA
Location:  24°S, 46.4°W
Report Text: SBSP 291200Z 31013KT 9999 SCT020 24/17 Q1018
Loading
Personal Weather Stations






























Interactive Weather Map New forecast layout! Learn more

10-Day Weather Forecast

Advertisements
Track Severe Weather on mobile